sensor_id;sensor_type;location;lat;lon;timestamp;P1;durP1;ratioP1;P2;durP2;ratioP2
50102;SDS011;35993;52.604;10.078;2023-03-12T00:01:28;7.47;;;2.90;;
50102;SDS011;35993;52.604;10.078;2023-03-12T00:03:57;5.87;;;2.50;;
50102;SDS011;35993;52.604;10.078;2023-03-12T00:06:25;10.20;;;2.87;;
50102;SDS011;35993;52.604;10.078;2023-03-12T00:08:50;5.70;;;3.00;;
50102;SDS011;35993;52.604;10.078;2023-03-12T00:11:17;6.50;;;2.30;;
50102;SDS011;35993;52.604;10.078;2023-03-12T00:13:48;3.77;;;2.10;;
50102;SDS011;35993;52.604;10.078;2023-03-12T00:16:19;4.93;;;2.07;;
50102;SDS011;35993;52.604;10.078;2023-03-12T00:18:46;6.23;;;2.30;;
50102;SDS011;35993;52.604;10.078;2023-03-12T00:21:13;5.63;;;2.43;;
50102;SDS011;35993;52.604;10.078;2023-03-12T00:23:38;3.83;;;2.17;;
50102;SDS011;35993;52.604;10.078;2023-03-12T00:26:06;5.90;;;2.50;;
50102;SDS011;35993;52.604;10.078;2023-03-12T00:28:33;6.43;;;2.50;;
50102;SDS011;35993;52.604;10.078;2023-03-12T00:30:59;6.30;;;2.20;;
50102;SDS011;35993;52.604;10.078;2023-03-12T00:33:26;5.30;;;2.40;;
50102;SDS011;35993;52.604;10.078;2023-03-12T00:35:53;5.07;;;2.20;;
50102;SDS011;35993;52.604;10.078;2023-03-12T00:38:20;3.63;;;1.87;;
50102;SDS011;35993;52.604;10.078;2023-03-12T00:40:47;5.50;;;2.40;;
50102;SDS011;35993;52.604;10.078;2023-03-12T00:43:13;5.60;;;2.30;;
50102;SDS011;35993;52.604;10.078;2023-03-12T00:45:38;9.53;;;2.60;;
50102;SDS011;35993;52.604;10.078;2023-03-12T00:48:04;5.57;;;2.27;;
50102;SDS011;35993;52.604;10.078;2023-03-12T00:50:30;6.20;;;2.70;;
50102;SDS011;35993;52.604;10.078;2023-03-12T00:52:55;7.00;;;2.27;;
50102;SDS011;35993;52.604;10.078;2023-03-12T00:55:21;8.00;;;2.70;;
50102;SDS011;35993;52.604;10.078;2023-03-12T00:57:47;7.57;;;2.67;;
50102;SDS011;35993;52.604;10.078;2023-03-12T01:00:12;5.60;;;2.77;;
50102;SDS011;35993;52.604;10.078;2023-03-12T01:02:39;6.00;;;2.70;;
50102;SDS011;35993;52.604;10.078;2023-03-12T01:05:05;6.87;;;2.70;;
50102;SDS011;35993;52.604;10.078;2023-03-12T01:07:32;4.73;;;2.60;;
50102;SDS011;35993;52.604;10.078;2023-03-12T01:09:59;8.57;;;2.47;;
50102;SDS011;35993;52.604;10.078;2023-03-12T01:12:24;6.60;;;2.57;;
50102;SDS011;35993;52.604;10.078;2023-03-12T01:14:50;6.93;;;2.03;;
50102;SDS011;35993;52.604;10.078;2023-03-12T01:17:15;6.83;;;2.70;;
50102;SDS011;35993;52.604;10.078;2023-03-12T01:19:41;9.60;;;2.60;;
50102;SDS011;35993;52.604;10.078;2023-03-12T01:22:07;5.60;;;2.60;;
50102;SDS011;35993;52.604;10.078;2023-03-12T01:24:32;6.07;;;2.60;;
50102;SDS011;35993;52.604;10.078;2023-03-12T01:26:58;9.80;;;2.50;;
50102;SDS011;35993;52.604;10.078;2023-03-12T01:29:23;7.27;;;2.60;;
50102;SDS011;35993;52.604;10.078;2023-03-12T01:31:49;6.63;;;2.40;;
50102;SDS011;35993;52.604;10.078;2023-03-12T01:34:16;7.37;;;2.23;;
50102;SDS011;35993;52.604;10.078;2023-03-12T01:36:42;5.60;;;2.60;;
50102;SDS011;35993;52.604;10.078;2023-03-12T01:39:09;7.47;;;2.57;;
50102;SDS011;35993;52.604;10.078;2023-03-12T01:41:35;7.20;;;2.53;;
50102;SDS011;35993;52.604;10.078;2023-03-12T01:44:01;6.43;;;2.47;;
50102;SDS011;35993;52.604;10.078;2023-03-12T01:46:35;5.70;;;2.20;;
50102;SDS011;35993;52.604;10.078;2023-03-12T01:49:10;5.00;;;2.40;;
50102;SDS011;35993;52.604;10.078;2023-03-12T01:54:11;7.87;;;2.00;;
50102;SDS011;35993;52.604;10.078;2023-03-12T01:56:41;8.15;;;2.40;;
50102;SDS011;35993;52.604;10.078;2023-03-12T01:59:19;6.63;;;2.53;;
50102;SDS011;35993;52.604;10.078;2023-03-12T02:01:49;4.63;;;2.40;;
50102;SDS011;35993;52.604;10.078;2023-03-12T02:04:21;4.05;;;2.42;;
50102;SDS011;35993;52.604;10.078;2023-03-12T02:07:01;5.33;;;2.30;;
50102;SDS011;35993;52.604;10.078;2023-03-12T02:09:29;5.23;;;2.20;;
50102;SDS011;35993;52.604;10.078;2023-03-12T02:11:57;6.00;;;2.43;;
50102;SDS011;35993;52.604;10.078;2023-03-12T02:14:23;7.33;;;2.23;;
50102;SDS011;35993;52.604;10.078;2023-03-12T02:16:49;4.20;;;2.30;;
50102;SDS011;35993;52.604;10.078;2023-03-12T02:19:24;5.17;;;2.47;;
50102;SDS011;35993;52.604;10.078;2023-03-12T02:22:00;7.53;;;3.10;;
50102;SDS011;35993;52.604;10.078;2023-03-12T02:27:07;11.73;;;2.80;;
50102;SDS011;35993;52.604;10.078;2023-03-12T02:29:35;8.37;;;2.60;;
50102;SDS011;35993;52.604;10.078;2023-03-12T02:32:04;6.57;;;2.90;;
50102;SDS011;35993;52.604;10.078;2023-03-12T02:34:32;10.07;;;2.80;;
50102;SDS011;35993;52.604;10.078;2023-03-12T02:36:58;4.87;;;2.60;;
50102;SDS011;35993;52.604;10.078;2023-03-12T02:39:24;3.47;;;2.13;;
50102;SDS011;35993;52.604;10.078;2023-03-12T02:41:51;5.87;;;2.17;;
50102;SDS011;35993;52.604;10.078;2023-03-12T02:44:23;6.90;;;2.40;;
50102;SDS011;35993;52.604;10.078;2023-03-12T02:46:52;6.90;;;2.77;;
50102;SDS011;35993;52.604;10.078;2023-03-12T02:49:21;4.17;;;2.43;;
50102;SDS011;35993;52.604;10.078;2023-03-12T02:51:48;5.20;;;2.50;;
50102;SDS011;35993;52.604;10.078;2023-03-12T02:54:14;4.43;;;2.30;;
50102;SDS011;35993;52.604;10.078;2023-03-12T02:56:41;4.70;;;2.47;;
50102;SDS011;35993;52.604;10.078;2023-03-12T02:59:07;3.50;;;2.20;;
50102;SDS011;35993;52.604;10.078;2023-03-12T03:01:37;4.33;;;2.47;;
50102;SDS011;35993;52.604;10.078;2023-03-12T03:04:03;5.33;;;2.80;;
50102;SDS011;35993;52.604;10.078;2023-03-12T03:06:30;3.37;;;2.23;;
50102;SDS011;35993;52.604;10.078;2023-03-12T03:08:57;5.27;;;2.27;;
50102;SDS011;35993;52.604;10.078;2023-03-12T03:11:23;4.60;;;2.20;;
50102;SDS011;35993;52.604;10.078;2023-03-12T03:13:50;4.67;;;2.50;;
50102;SDS011;35993;52.604;10.078;2023-03-12T03:16:17;6.17;;;2.10;;
50102;SDS011;35993;52.604;10.078;2023-03-12T03:18:43;5.30;;;2.57;;
50102;SDS011;35993;52.604;10.078;2023-03-12T03:21:08;5.67;;;2.60;;
50102;SDS011;35993;52.604;10.078;2023-03-12T03:23:41;5.53;;;2.65;;
50102;SDS011;35993;52.604;10.078;2023-03-12T03:26:07;4.90;;;2.60;;
50102;SDS011;35993;52.604;10.078;2023-03-12T03:28:33;6.33;;;2.53;;
50102;SDS011;35993;52.604;10.078;2023-03-12T03:30:58;4.23;;;2.13;;
50102;SDS011;35993;52.604;10.078;2023-03-12T03:37:34;5.30;;;2.30;;
50102;SDS011;35993;52.604;10.078;2023-03-12T03:40:00;5.10;;;2.60;;
50102;SDS011;35993;52.604;10.078;2023-03-12T03:42:25;6.50;;;2.17;;
50102;SDS011;35993;52.604;10.078;2023-03-12T03:44:51;6.33;;;2.47;;
50102;SDS011;35993;52.604;10.078;2023-03-12T03:47:17;3.73;;;2.13;;
50102;SDS011;35993;52.604;10.078;2023-03-12T03:49:42;4.77;;;2.57;;
50102;SDS011;35993;52.604;10.078;2023-03-12T03:52:09;5.73;;;2.87;;
50102;SDS011;35993;52.604;10.078;2023-03-12T03:54:36;6.17;;;2.20;;
50102;SDS011;35993;52.604;10.078;2023-03-12T03:57:03;5.13;;;2.27;;
50102;SDS011;35993;52.604;10.078;2023-03-12T03:59:29;3.33;;;2.00;;
50102;SDS011;35993;52.604;10.078;2023-03-12T04:01:54;5.97;;;2.63;;
50102;SDS011;35993;52.604;10.078;2023-03-12T04:04:20;4.00;;;2.20;;
50102;SDS011;35993;52.604;10.078;2023-03-12T04:06:46;4.80;;;2.23;;
50102;SDS011;35993;52.604;10.078;2023-03-12T04:09:12;2.97;;;2.10;;
50102;SDS011;35993;52.604;10.078;2023-03-12T04:11:39;4.00;;;2.00;;
50102;SDS011;35993;52.604;10.078;2023-03-12T04:14:06;4.47;;;2.50;;
50102;SDS011;35993;52.604;10.078;2023-03-12T04:16:34;5.03;;;2.30;;
50102;SDS011;35993;52.604;10.078;2023-03-12T04:19:00;5.43;;;2.20;;
50102;SDS011;35993;52.604;10.078;2023-03-12T04:21:26;4.87;;;2.50;;
50102;SDS011;35993;52.604;10.078;2023-03-12T04:23:52;5.67;;;2.40;;
50102;SDS011;35993;52.604;10.078;2023-03-12T04:26:21;4.60;;;2.40;;
50102;SDS011;35993;52.604;10.078;2023-03-12T04:28:47;4.00;;;2.17;;
50102;SDS011;35993;52.604;10.078;2023-03-12T04:31:12;4.27;;;2.40;;
50102;SDS011;35993;52.604;10.078;2023-03-12T04:33:43;4.03;;;2.27;;
50102;SDS011;35993;52.604;10.078;2023-03-12T04:36:10;4.57;;;2.30;;
50102;SDS011;35993;52.604;10.078;2023-03-12T04:38:40;5.57;;;2.30;;
50102;SDS011;35993;52.604;10.078;2023-03-12T04:41:07;4.87;;;2.20;;
50102;SDS011;35993;52.604;10.078;2023-03-12T04:43:39;6.03;;;2.90;;
50102;SDS011;35993;52.604;10.078;2023-03-12T04:46:05;4.93;;;2.60;;
50102;SDS011;35993;52.604;10.078;2023-03-12T04:48:31;4.87;;;2.27;;
50102;SDS011;35993;52.604;10.078;2023-03-12T04:50:58;6.27;;;2.60;;
50102;SDS011;35993;52.604;10.078;2023-03-12T04:53:24;6.40;;;2.60;;
50102;SDS011;35993;52.604;10.078;2023-03-12T04:55:50;4.97;;;2.50;;
50102;SDS011;35993;52.604;10.078;2023-03-12T04:58:16;7.37;;;2.83;;
50102;SDS011;35993;52.604;10.078;2023-03-12T05:00:43;7.43;;;2.57;;
50102;SDS011;35993;52.604;10.078;2023-03-12T05:03:09;5.37;;;3.00;;
50102;SDS011;35993;52.604;10.078;2023-03-12T05:05:35;13.20;;;2.90;;
50102;SDS011;35993;52.604;10.078;2023-03-12T05:08:02;4.93;;;2.60;;
50102;SDS011;35993;52.604;10.078;2023-03-12T05:10:30;4.80;;;2.90;;
50102;SDS011;35993;52.604;10.078;2023-03-12T05:12:56;5.63;;;2.73;;
50102;SDS011;35993;52.604;10.078;2023-03-12T05:15:23;7.33;;;3.00;;
50102;SDS011;35993;52.604;10.078;2023-03-12T05:17:50;6.07;;;2.50;;
50102;SDS011;35993;52.604;10.078;2023-03-12T05:20:16;3.63;;;2.80;;
50102;SDS011;35993;52.604;10.078;2023-03-12T05:22:44;8.07;;;3.00;;
50102;SDS011;35993;52.604;10.078;2023-03-12T05:25:10;6.20;;;2.90;;
50102;SDS011;35993;52.604;10.078;2023-03-12T05:27:36;7.23;;;3.03;;
50102;SDS011;35993;52.604;10.078;2023-03-12T05:30:03;4.67;;;2.67;;
50102;SDS011;35993;52.604;10.078;2023-03-12T05:32:30;4.50;;;2.60;;
50102;SDS011;35993;52.604;10.078;2023-03-12T05:34:55;6.33;;;2.90;;
50102;SDS011;35993;52.604;10.078;2023-03-12T05:37:21;7.20;;;2.93;;
50102;SDS011;35993;52.604;10.078;2023-03-12T05:39:48;4.93;;;2.67;;
50102;SDS011;35993;52.604;10.078;2023-03-12T05:42:15;5.33;;;2.60;;
50102;SDS011;35993;52.604;10.078;2023-03-12T05:44:41;5.03;;;2.50;;
50102;SDS011;35993;52.604;10.078;2023-03-12T05:47:10;7.37;;;2.70;;
50102;SDS011;35993;52.604;10.078;2023-03-12T05:49:38;4.53;;;2.80;;
50102;SDS011;35993;52.604;10.078;2023-03-12T05:52:04;6.03;;;2.87;;
50102;SDS011;35993;52.604;10.078;2023-03-12T05:54:31;7.80;;;2.93;;
50102;SDS011;35993;52.604;10.078;2023-03-12T05:56:56;4.63;;;2.70;;
50102;SDS011;35993;52.604;10.078;2023-03-12T05:59:24;5.53;;;2.70;;
50102;SDS011;35993;52.604;10.078;2023-03-12T06:01:51;7.17;;;2.77;;
50102;SDS011;35993;52.604;10.078;2023-03-12T06:04:16;5.37;;;2.57;;
50102;SDS011;35993;52.604;10.078;2023-03-12T06:06:42;4.03;;;2.57;;
50102;SDS011;35993;52.604;10.078;2023-03-12T06:09:08;4.63;;;2.37;;
50102;SDS011;35993;52.604;10.078;2023-03-12T06:11:34;7.40;;;2.83;;
50102;SDS011;35993;52.604;10.078;2023-03-12T06:13:59;6.10;;;2.80;;
50102;SDS011;35993;52.604;10.078;2023-03-12T06:16:25;4.43;;;2.30;;
50102;SDS011;35993;52.604;10.078;2023-03-12T06:18:53;4.53;;;2.57;;
50102;SDS011;35993;52.604;10.078;2023-03-12T06:21:24;5.23;;;2.57;;
50102;SDS011;35993;52.604;10.078;2023-03-12T06:23:52;6.13;;;2.93;;
50102;SDS011;35993;52.604;10.078;2023-03-12T06:26:28;7.20;;;2.97;;
50102;SDS011;35993;52.604;10.078;2023-03-12T06:28:54;5.50;;;3.00;;
50102;SDS011;35993;52.604;10.078;2023-03-12T06:31:20;5.77;;;3.10;;
50102;SDS011;35993;52.604;10.078;2023-03-12T06:33:47;6.57;;;3.00;;
50102;SDS011;35993;52.604;10.078;2023-03-12T06:36:13;6.57;;;3.37;;
50102;SDS011;35993;52.604;10.078;2023-03-12T06:38:39;4.60;;;2.80;;
50102;SDS011;35993;52.604;10.078;2023-03-12T06:41:09;8.03;;;2.57;;
50102;SDS011;35993;52.604;10.078;2023-03-12T06:43:37;5.43;;;2.95;;
50102;SDS011;35993;52.604;10.078;2023-03-12T06:46:04;6.13;;;3.03;;
50102;SDS011;35993;52.604;10.078;2023-03-12T06:48:31;5.13;;;2.80;;
50102;SDS011;35993;52.604;10.078;2023-03-12T06:51:01;5.80;;;3.23;;
50102;SDS011;35993;52.604;10.078;2023-03-12T06:53:29;6.30;;;2.40;;
50102;SDS011;35993;52.604;10.078;2023-03-12T06:55:57;5.83;;;2.60;;
50102;SDS011;35993;52.604;10.078;2023-03-12T06:58:23;5.03;;;2.50;;
50102;SDS011;35993;52.604;10.078;2023-03-12T07:00:49;4.23;;;2.50;;
50102;SDS011;35993;52.604;10.078;2023-03-12T07:03:15;6.03;;;2.97;;
50102;SDS011;35993;52.604;10.078;2023-03-12T07:05:44;3.60;;;2.30;;
50102;SDS011;35993;52.604;10.078;2023-03-12T07:08:14;6.07;;;2.57;;
50102;SDS011;35993;52.604;10.078;2023-03-12T07:10:39;8.63;;;2.57;;
50102;SDS011;35993;52.604;10.078;2023-03-12T07:13:06;5.20;;;2.50;;
50102;SDS011;35993;52.604;10.078;2023-03-12T07:15:32;5.33;;;2.97;;
50102;SDS011;35993;52.604;10.078;2023-03-12T07:17:59;8.80;;;4.60;;
50102;SDS011;35993;52.604;10.078;2023-03-12T07:20:38;13.17;;;5.27;;
50102;SDS011;35993;52.604;10.078;2023-03-12T07:23:06;8.60;;;2.90;;
50102;SDS011;35993;52.604;10.078;2023-03-12T07:25:36;4.73;;;2.60;;
50102;SDS011;35993;52.604;10.078;2023-03-12T07:28:03;5.07;;;2.93;;
50102;SDS011;35993;52.604;10.078;2023-03-12T07:30:30;9.30;;;2.30;;
50102;SDS011;35993;52.604;10.078;2023-03-12T07:33:00;6.77;;;2.33;;
50102;SDS011;35993;52.604;10.078;2023-03-12T07:35:27;5.63;;;2.40;;
50102;SDS011;35993;52.604;10.078;2023-03-12T07:37:53;6.03;;;3.00;;
50102;SDS011;35993;52.604;10.078;2023-03-12T07:40:19;6.07;;;3.20;;
50102;SDS011;35993;52.604;10.078;2023-03-12T07:42:45;9.97;;;3.10;;
50102;SDS011;35993;52.604;10.078;2023-03-12T07:45:11;4.70;;;2.63;;
50102;SDS011;35993;52.604;10.078;2023-03-12T07:47:36;4.60;;;2.40;;
50102;SDS011;35993;52.604;10.078;2023-03-12T07:50:02;5.83;;;2.30;;
50102;SDS011;35993;52.604;10.078;2023-03-12T07:52:28;2.90;;;1.90;;
50102;SDS011;35993;52.604;10.078;2023-03-12T07:54:53;8.80;;;2.73;;
50102;SDS011;35993;52.604;10.078;2023-03-12T07:57:20;5.07;;;2.70;;
50102;SDS011;35993;52.604;10.078;2023-03-12T07:59:46;3.63;;;2.17;;
50102;SDS011;35993;52.604;10.078;2023-03-12T08:02:12;7.27;;;2.50;;
50102;SDS011;35993;52.604;10.078;2023-03-12T08:04:38;3.97;;;2.17;;
50102;SDS011;35993;52.604;10.078;2023-03-12T08:07:04;6.43;;;2.80;;
50102;SDS011;35993;52.604;10.078;2023-03-12T08:09:29;5.17;;;1.93;;
50102;SDS011;35993;52.604;10.078;2023-03-12T08:11:56;3.47;;;2.10;;
50102;SDS011;35993;52.604;10.078;2023-03-12T08:14:22;4.30;;;2.17;;
50102;SDS011;35993;52.604;10.078;2023-03-12T08:16:47;7.10;;;2.33;;
50102;SDS011;35993;52.604;10.078;2023-03-12T08:19:13;6.30;;;2.42;;
50102;SDS011;35993;52.604;10.078;2023-03-12T08:21:38;5.23;;;2.43;;
50102;SDS011;35993;52.604;10.078;2023-03-12T08:24:04;7.22;;;2.80;;
50102;SDS011;35993;52.604;10.078;2023-03-12T08:26:29;5.87;;;2.57;;
50102;SDS011;35993;52.604;10.078;2023-03-12T08:28:55;5.90;;;2.50;;
50102;SDS011;35993;52.604;10.078;2023-03-12T08:31:21;6.13;;;2.60;;
50102;SDS011;35993;52.604;10.078;2023-03-12T08:33:47;4.43;;;2.30;;
50102;SDS011;35993;52.604;10.078;2023-03-12T08:36:12;5.15;;;2.10;;
50102;SDS011;35993;52.604;10.078;2023-03-12T08:38:38;5.10;;;2.70;;
50102;SDS011;35993;52.604;10.078;2023-03-12T08:41:03;5.32;;;2.70;;
50102;SDS011;35993;52.604;10.078;2023-03-12T08:43:29;7.70;;;3.20;;
50102;SDS011;35993;52.604;10.078;2023-03-12T08:45:59;7.28;;;2.80;;
50102;SDS011;35993;52.604;10.078;2023-03-12T08:48:26;4.53;;;2.70;;
50102;SDS011;35993;52.604;10.078;2023-03-12T08:50:54;6.50;;;3.10;;
50102;SDS011;35993;52.604;10.078;2023-03-12T08:53:21;5.32;;;2.58;;
50102;SDS011;35993;52.604;10.078;2023-03-12T08:55:47;7.22;;;2.90;;
50102;SDS011;35993;52.604;10.078;2023-03-12T08:58:12;5.80;;;2.70;;
50102;SDS011;35993;52.604;10.078;2023-03-12T09:00:38;6.38;;;2.63;;
50102;SDS011;35993;52.604;10.078;2023-03-12T09:03:04;7.60;;;3.10;;
50102;SDS011;35993;52.604;10.078;2023-03-12T09:05:29;4.50;;;2.40;;
50102;SDS011;35993;52.604;10.078;2023-03-12T09:07:56;4.93;;;2.37;;
50102;SDS011;35993;52.604;10.078;2023-03-12T09:10:22;6.32;;;2.35;;
50102;SDS011;35993;52.604;10.078;2023-03-12T09:12:48;4.30;;;2.15;;
50102;SDS011;35993;52.604;10.078;2023-03-12T09:15:14;5.63;;;2.25;;
50102;SDS011;35993;52.604;10.078;2023-03-12T09:17:39;4.45;;;2.22;;
50102;SDS011;35993;52.604;10.078;2023-03-12T09:20:06;5.75;;;2.13;;
50102;SDS011;35993;52.604;10.078;2023-03-12T09:22:33;3.10;;;1.63;;
50102;SDS011;35993;52.604;10.078;2023-03-12T09:25:03;5.65;;;1.77;;
50102;SDS011;35993;52.604;10.078;2023-03-12T09:27:29;3.40;;;1.80;;
50102;SDS011;35993;52.604;10.078;2023-03-12T09:29:54;3.10;;;1.60;;
50102;SDS011;35993;52.604;10.078;2023-03-12T09:32:20;5.10;;;1.63;;
50102;SDS011;35993;52.604;10.078;2023-03-12T09:34:45;2.95;;;1.50;;
50102;SDS011;35993;52.604;10.078;2023-03-12T09:37:11;4.28;;;1.40;;
50102;SDS011;35993;52.604;10.078;2023-03-12T09:39:37;4.25;;;1.45;;
50102;SDS011;35993;52.604;10.078;2023-03-12T09:42:03;4.78;;;1.70;;
50102;SDS011;35993;52.604;10.078;2023-03-12T09:44:32;5.72;;;1.63;;
50102;SDS011;35993;52.604;10.078;2023-03-12T09:47:02;4.50;;;1.85;;
50102;SDS011;35993;52.604;10.078;2023-03-12T09:49:38;2.35;;;1.27;;
50102;SDS011;35993;52.604;10.078;2023-03-12T09:55:11;2.88;;;1.40;;
50102;SDS011;35993;52.604;10.078;2023-03-12T09:57:47;2.90;;;1.48;;
50102;SDS011;35993;52.604;10.078;2023-03-12T10:14:06;3.10;;;1.63;;
50102;SDS011;35993;52.604;10.078;2023-03-12T10:27:52;6.80;;;1.60;;
50102;SDS011;35993;52.604;10.078;2023-03-12T10:30:20;8.63;;;2.20;;
50102;SDS011;35993;52.604;10.078;2023-03-12T10:32:54;5.22;;;1.70;;
50102;SDS011;35993;52.604;10.078;2023-03-12T10:35:23;4.18;;;1.90;;
50102;SDS011;35993;52.604;10.078;2023-03-12T10:37:52;5.53;;;1.98;;
50102;SDS011;35993;52.604;10.078;2023-03-12T10:40:22;3.95;;;1.83;;
50102;SDS011;35993;52.604;10.078;2023-03-12T10:42:53;3.05;;;1.67;;
50102;SDS011;35993;52.604;10.078;2023-03-12T10:47:58;4.65;;;1.60;;
50102;SDS011;35993;52.604;10.078;2023-03-12T10:50:29;4.32;;;1.50;;
50102;SDS011;35993;52.604;10.078;2023-03-12T10:53:18;5.35;;;1.67;;
50102;SDS011;35993;52.604;10.078;2023-03-12T10:55:57;2.88;;;1.55;;
50102;SDS011;35993;52.604;10.078;2023-03-12T10:58:23;2.97;;;1.60;;
50102;SDS011;35993;52.604;10.078;2023-03-12T11:00:56;5.05;;;1.65;;
50102;SDS011;35993;52.604;10.078;2023-03-12T11:03:23;4.70;;;1.48;;
50102;SDS011;35993;52.604;10.078;2023-03-12T11:05:54;4.60;;;1.80;;
50102;SDS011;35993;52.604;10.078;2023-03-12T11:08:25;2.90;;;1.60;;
50102;SDS011;35993;52.604;10.078;2023-03-12T11:10:54;5.20;;;1.88;;
50102;SDS011;35993;52.604;10.078;2023-03-12T11:13:37;2.83;;;1.52;;
50102;SDS011;35993;52.604;10.078;2023-03-12T11:18:39;6.07;;;1.75;;
50102;SDS011;35993;52.604;10.078;2023-03-12T11:23:34;1.75;;;1.25;;
50102;SDS011;35993;52.604;10.078;2023-03-12T11:26:09;5.78;;;1.77;;
50102;SDS011;35993;52.604;10.078;2023-03-12T11:28:40;3.50;;;1.52;;
50102;SDS011;35993;52.604;10.078;2023-03-12T11:31:49;6.90;;;1.98;;
50102;SDS011;35993;52.604;10.078;2023-03-12T11:34:24;6.13;;;1.90;;
50102;SDS011;35993;52.604;10.078;2023-03-12T11:37:06;4.00;;;1.67;;
50102;SDS011;35993;52.604;10.078;2023-03-12T11:42:25;3.25;;;1.60;;
50102;SDS011;35993;52.604;10.078;2023-03-12T11:47:46;3.58;;;1.45;;
50102;SDS011;35993;52.604;10.078;2023-03-12T12:10:16;5.43;;;1.85;;
50102;SDS011;35993;52.604;10.078;2023-03-12T12:12:49;3.90;;;1.70;;
50102;SDS011;35993;52.604;10.078;2023-03-12T12:18:27;3.72;;;1.60;;
50102;SDS011;35993;52.604;10.078;2023-03-12T12:27:20;6.38;;;2.22;;
50102;SDS011;35993;52.604;10.078;2023-03-12T12:32:56;6.22;;;1.98;;
50102;SDS011;35993;52.604;10.078;2023-03-12T12:40:38;4.82;;;2.05;;
50102;SDS011;35993;52.604;10.078;2023-03-12T12:43:14;2.83;;;2.13;;
50102;SDS011;35993;52.604;10.078;2023-03-12T12:45:49;4.00;;;1.75;;
50102;SDS011;35993;52.604;10.078;2023-03-12T12:48:21;6.55;;;2.25;;
50102;SDS011;35993;52.604;10.078;2023-03-12T12:50:52;6.45;;;2.00;;
50102;SDS011;35993;52.604;10.078;2023-03-12T12:56:15;5.72;;;2.20;;
50102;SDS011;35993;52.604;10.078;2023-03-12T13:01:33;6.88;;;2.33;;
50102;SDS011;35993;52.604;10.078;2023-03-12T13:04:09;5.47;;;2.38;;
50102;SDS011;35993;52.604;10.078;2023-03-12T13:06:53;5.43;;;2.70;;
50102;SDS011;35993;52.604;10.078;2023-03-12T13:09:22;5.03;;;2.63;;
50102;SDS011;35993;52.604;10.078;2023-03-12T13:12:05;7.50;;;3.85;;
50102;SDS011;35993;52.604;10.078;2023-03-12T13:14:37;4.82;;;2.65;;
50102;SDS011;35993;52.604;10.078;2023-03-12T13:17:06;5.53;;;2.55;;
50102;SDS011;35993;52.604;10.078;2023-03-12T13:19:57;3.55;;;2.45;;
50102;SDS011;35993;52.604;10.078;2023-03-12T13:27:58;5.95;;;2.70;;
50102;SDS011;35993;52.604;10.078;2023-03-12T13:40:38;5.20;;;3.30;;
50102;SDS011;35993;52.604;10.078;2023-03-12T13:43:16;5.72;;;3.20;;
50102;SDS011;35993;52.604;10.078;2023-03-12T13:46:04;4.72;;;2.75;;
50102;SDS011;35993;52.604;10.078;2023-03-12T13:48:32;7.75;;;3.30;;
50102;SDS011;35993;52.604;10.078;2023-03-12T13:51:15;6.25;;;3.13;;
50102;SDS011;35993;52.604;10.078;2023-03-12T13:53:47;7.85;;;3.40;;
50102;SDS011;35993;52.604;10.078;2023-03-12T13:56:16;5.68;;;2.95;;
50102;SDS011;35993;52.604;10.078;2023-03-12T14:01:22;5.78;;;2.70;;
50102;SDS011;35993;52.604;10.078;2023-03-12T14:03:58;5.78;;;3.03;;
50102;SDS011;35993;52.604;10.078;2023-03-12T14:06:28;5.07;;;3.03;;
50102;SDS011;35993;52.604;10.078;2023-03-12T14:17:23;5.25;;;3.00;;
50102;SDS011;35993;52.604;10.078;2023-03-12T14:19:55;5.20;;;2.90;;
50102;SDS011;35993;52.604;10.078;2023-03-12T14:22:24;5.78;;;3.10;;
50102;SDS011;35993;52.604;10.078;2023-03-12T14:24:56;7.55;;;3.08;;
50102;SDS011;35993;52.604;10.078;2023-03-12T14:27:30;7.10;;;3.22;;
50102;SDS011;35993;52.604;10.078;2023-03-12T14:30:09;4.97;;;3.33;;
50102;SDS011;35993;52.604;10.078;2023-03-12T14:32:40;5.47;;;3.22;;
50102;SDS011;35993;52.604;10.078;2023-03-12T14:35:16;5.22;;;3.28;;
50102;SDS011;35993;52.604;10.078;2023-03-12T14:37:43;4.78;;;3.17;;
50102;SDS011;35993;52.604;10.078;2023-03-12T14:42:59;8.55;;;3.80;;
50102;SDS011;35993;52.604;10.078;2023-03-12T14:45:24;5.22;;;3.28;;
50102;SDS011;35993;52.604;10.078;2023-03-12T14:47:55;4.00;;;3.17;;
50102;SDS011;35993;52.604;10.078;2023-03-12T14:53:11;9.80;;;4.82;;
50102;SDS011;35993;52.604;10.078;2023-03-12T14:55:41;6.00;;;3.38;;
50102;SDS011;35993;52.604;10.078;2023-03-12T14:58:17;5.90;;;3.30;;
50102;SDS011;35993;52.604;10.078;2023-03-12T15:00:45;7.57;;;4.03;;
50102;SDS011;35993;52.604;10.078;2023-03-12T15:03:22;17.05;;;9.38;;
50102;SDS011;35993;52.604;10.078;2023-03-12T15:05:48;18.63;;;10.20;;
50102;SDS011;35993;52.604;10.078;2023-03-12T15:08:14;50.27;;;12.50;;
50102;SDS011;35993;52.604;10.078;2023-03-12T15:10:49;32.30;;;13.88;;
50102;SDS011;35993;52.604;10.078;2023-03-12T15:13:18;35.53;;;7.28;;
50102;SDS011;35993;52.604;10.078;2023-03-12T15:15:45;14.93;;;4.50;;
50102;SDS011;35993;52.604;10.078;2023-03-12T15:20:53;28.45;;;6.55;;
50102;SDS011;35993;52.604;10.078;2023-03-12T15:23:22;18.88;;;5.05;;
50102;SDS011;35993;52.604;10.078;2023-03-12T15:28:34;7.18;;;3.83;;
50102;SDS011;35993;52.604;10.078;2023-03-12T15:31:07;22.98;;;14.32;;
50102;SDS011;35993;52.604;10.078;2023-03-12T15:33:41;8.88;;;5.40;;
50102;SDS011;35993;52.604;10.078;2023-03-12T15:38:36;6.80;;;3.90;;
50102;SDS011;35993;52.604;10.078;2023-03-12T15:41:15;7.05;;;4.72;;
50102;SDS011;35993;52.604;10.078;2023-03-12T15:43:44;6.93;;;4.22;;
50102;SDS011;35993;52.604;10.078;2023-03-12T15:46:13;10.15;;;5.78;;
50102;SDS011;35993;52.604;10.078;2023-03-12T15:48:41;7.40;;;3.78;;
50102;SDS011;35993;52.604;10.078;2023-03-12T15:51:25;5.57;;;3.45;;
50102;SDS011;35993;52.604;10.078;2023-03-12T15:53:58;6.18;;;3.58;;
50102;SDS011;35993;52.604;10.078;2023-03-12T15:56:29;5.55;;;4.22;;
50102;SDS011;35993;52.604;10.078;2023-03-12T15:58:58;5.78;;;4.05;;
50102;SDS011;35993;52.604;10.078;2023-03-12T16:01:25;6.80;;;4.97;;
50102;SDS011;35993;52.604;10.078;2023-03-12T16:03:52;8.63;;;4.88;;
50102;SDS011;35993;52.604;10.078;2023-03-12T16:06:22;8.27;;;4.80;;
50102;SDS011;35993;52.604;10.078;2023-03-12T16:08:52;6.07;;;4.18;;
50102;SDS011;35993;52.604;10.078;2023-03-12T16:11:21;9.57;;;5.00;;
50102;SDS011;35993;52.604;10.078;2023-03-12T16:13:50;9.52;;;5.53;;
50102;SDS011;35993;52.604;10.078;2023-03-12T16:16:20;11.05;;;5.78;;
50102;SDS011;35993;52.604;10.078;2023-03-12T16:18:46;8.60;;;4.82;;
50102;SDS011;35993;52.604;10.078;2023-03-12T16:21:11;10.45;;;5.22;;
50102;SDS011;35993;52.604;10.078;2023-03-12T16:23:37;11.68;;;6.25;;
50102;SDS011;35993;52.604;10.078;2023-03-12T16:26:03;8.90;;;5.50;;
50102;SDS011;35993;52.604;10.078;2023-03-12T16:28:29;11.50;;;5.60;;
50102;SDS011;35993;52.604;10.078;2023-03-12T16:30:55;9.82;;;5.10;;
50102;SDS011;35993;52.604;10.078;2023-03-12T16:33:22;9.20;;;5.13;;
50102;SDS011;35993;52.604;10.078;2023-03-12T16:35:48;11.52;;;5.38;;
50102;SDS011;35993;52.604;10.078;2023-03-12T16:38:14;12.07;;;6.35;;
50102;SDS011;35993;52.604;10.078;2023-03-12T16:40:44;12.05;;;5.90;;
50102;SDS011;35993;52.604;10.078;2023-03-12T16:43:13;12.88;;;6.50;;
50102;SDS011;35993;52.604;10.078;2023-03-12T16:45:43;13.13;;;5.85;;
50102;SDS011;35993;52.604;10.078;2023-03-12T16:48:12;8.80;;;5.55;;
50102;SDS011;35993;52.604;10.078;2023-03-12T16:50:39;12.48;;;6.00;;
50102;SDS011;35993;52.604;10.078;2023-03-12T16:53:05;18.48;;;9.15;;
50102;SDS011;35993;52.604;10.078;2023-03-12T16:55:34;14.30;;;7.65;;